sensor_id;sensor_type;location;lat;lon;timestamp;temperature;humidity
18392;DHT22;9322;50.932;5.318;2023-12-14T00:00:29;8.80;1.40
18392;DHT22;9322;50.932;5.318;2023-12-14T00:02:55;8.80;1.40
18392;DHT22;9322;50.932;5.318;2023-12-14T00:05:20;8.90;1.40
18392;DHT22;9322;50.932;5.318;2023-12-14T00:07:46;8.80;1.40
18392;DHT22;9322;50.932;5.318;2023-12-14T00:10:12;8.90;1.40
18392;DHT22;9322;50.932;5.318;2023-12-14T00:12:38;8.80;1.40
18392;DHT22;9322;50.932;5.318;2023-12-14T00:15:05;8.80;1.40
18392;DHT22;9322;50.932;5.318;2023-12-14T00:17:31;8.90;1.40
18392;DHT22;9322;50.932;5.318;2023-12-14T00:19:56;8.90;1.40
18392;DHT22;9322;50.932;5.318;2023-12-14T00:22:22;8.90;1.40
18392;DHT22;9322;50.932;5.318;2023-12-14T00:24:48;8.90;1.40
18392;DHT22;9322;50.932;5.318;2023-12-14T00:27:13;8.80;1.40
18392;DHT22;9322;50.932;5.318;2023-12-14T00:29:39;8.90;1.40
18392;DHT22;9322;50.932;5.318;2023-12-14T00:32:05;8.90;1.40
18392;DHT22;9322;50.932;5.318;2023-12-14T00:34:31;9.00;1.40
18392;DHT22;9322;50.932;5.318;2023-12-14T00:36:57;9.00;1.40
18392;DHT22;9322;50.932;5.318;2023-12-14T00:39:22;8.90;1.40
18392;DHT22;9322;50.932;5.318;2023-12-14T00:41:48;9.00;1.40
18392;DHT22;9322;50.932;5.318;2023-12-14T00:44:14;9.00;1.40
18392;DHT22;9322;50.932;5.318;2023-12-14T00:46:40;9.00;1.40
18392;DHT22;9322;50.932;5.318;2023-12-14T00:49:07;9.00;1.40
18392;DHT22;9322;50.932;5.318;2023-12-14T00:51:33;8.90;1.40
18392;DHT22;9322;50.932;5.318;2023-12-14T00:53:58;9.00;1.40
18392;DHT22;9322;50.932;5.318;2023-12-14T00:56:25;8.90;1.40
18392;DHT22;9322;50.932;5.318;2023-12-14T00:58:50;9.00;1.40
18392;DHT22;9322;50.932;5.318;2023-12-14T01:01:16;8.90;1.40
18392;DHT22;9322;50.932;5.318;2023-12-14T01:03:42;8.90;1.40
18392;DHT22;9322;50.932;5.318;2023-12-14T01:06:08;8.90;1.40
18392;DHT22;9322;50.932;5.318;2023-12-14T01:08:34;8.90;1.40
18392;DHT22;9322;50.932;5.318;2023-12-14T01:10:59;8.90;1.40
18392;DHT22;9322;50.932;5.318;2023-12-14T01:13:25;8.90;1.40
18392;DHT22;9322;50.932;5.318;2023-12-14T01:15:51;8.90;1.40
18392;DHT22;9322;50.932;5.318;2023-12-14T01:18:17;8.80;1.40
18392;DHT22;9322;50.932;5.318;2023-12-14T01:20:43;8.70;1.40
18392;DHT22;9322;50.932;5.318;2023-12-14T01:23:09;8.70;1.40
18392;DHT22;9322;50.932;5.318;2023-12-14T01:25:35;8.70;1.40
18392;DHT22;9322;50.932;5.318;2023-12-14T01:28:01;8.60;1.40
18392;DHT22;9322;50.932;5.318;2023-12-14T01:30:27;8.60;1.40
18392;DHT22;9322;50.932;5.318;2023-12-14T01:32:53;8.60;1.40
18392;DHT22;9322;50.932;5.318;2023-12-14T01:35:19;8.50;1.40
18392;DHT22;9322;50.932;5.318;2023-12-14T01:37:44;8.60;1.40
18392;DHT22;9322;50.932;5.318;2023-12-14T01:40:10;8.60;1.40
18392;DHT22;9322;50.932;5.318;2023-12-14T01:42:36;8.60;1.40
18392;DHT22;9322;50.932;5.318;2023-12-14T01:45:02;8.60;1.40
18392;DHT22;9322;50.932;5.318;2023-12-14T01:47:29;8.60;1.40
18392;DHT22;9322;50.932;5.318;2023-12-14T01:49:54;8.70;1.40
18392;DHT22;9322;50.932;5.318;2023-12-14T01:52:20;8.80;1.40
18392;DHT22;9322;50.932;5.318;2023-12-14T01:54:46;8.80;1.40
18392;DHT22;9322;50.932;5.318;2023-12-14T01:57:11;8.70;1.40
18392;DHT22;9322;50.932;5.318;2023-12-14T01:59:37;8.70;1.40
18392;DHT22;9322;50.932;5.318;2023-12-14T02:02:03;8.70;1.40
18392;DHT22;9322;50.932;5.318;2023-12-14T02:04:31;8.80;1.40
18392;DHT22;9322;50.932;5.318;2023-12-14T02:06:57;8.80;1.40
18392;DHT22;9322;50.932;5.318;2023-12-14T02:09:23;8.80;1.40
18392;DHT22;9322;50.932;5.318;2023-12-14T02:11:48;8.80;1.40
18392;DHT22;9322;50.932;5.318;2023-12-14T02:14:14;8.60;1.40
18392;DHT22;9322;50.932;5.318;2023-12-14T02:16:40;8.60;1.40
18392;DHT22;9322;50.932;5.318;2023-12-14T02:19:06;8.50;1.40
18392;DHT22;9322;50.932;5.318;2023-12-14T02:21:31;8.60;1.40
18392;DHT22;9322;50.932;5.318;2023-12-14T02:23:57;8.40;1.40
18392;DHT22;9322;50.932;5.318;2023-12-14T02:26:23;8.30;1.40
18392;DHT22;9322;50.932;5.318;2023-12-14T02:28:48;8.20;1.40
18392;DHT22;9322;50.932;5.318;2023-12-14T02:31:14;8.20;1.40
18392;DHT22;9322;50.932;5.318;2023-12-14T02:33:40;8.10;1.40
18392;DHT22;9322;50.932;5.318;2023-12-14T02:36:06;8.20;1.40
18392;DHT22;9322;50.932;5.318;2023-12-14T02:38:32;8.10;1.40
18392;DHT22;9322;50.932;5.318;2023-12-14T02:40:58;8.00;1.40
18392;DHT22;9322;50.932;5.318;2023-12-14T02:43:24;8.00;1.40
18392;DHT22;9322;50.932;5.318;2023-12-14T02:45:50;8.00;1.40
18392;DHT22;9322;50.932;5.318;2023-12-14T02:48:16;7.90;1.40
18392;DHT22;9322;50.932;5.318;2023-12-14T02:50:42;7.80;1.40
18392;DHT22;9322;50.932;5.318;2023-12-14T02:53:08;7.80;1.40
18392;DHT22;9322;50.932;5.318;2023-12-14T02:55:33;7.70;1.40
18392;DHT22;9322;50.932;5.318;2023-12-14T02:57:59;7.60;1.40
18392;DHT22;9322;50.932;5.318;2023-12-14T03:00:25;7.70;1.40
18392;DHT22;9322;50.932;5.318;2023-12-14T03:02:51;7.60;1.40
18392;DHT22;9322;50.932;5.318;2023-12-14T03:05:17;7.70;1.40
18392;DHT22;9322;50.932;5.318;2023-12-14T03:07:43;7.70;1.40
18392;DHT22;9322;50.932;5.318;2023-12-14T03:10:09;7.80;1.40
18392;DHT22;9322;50.932;5.318;2023-12-14T03:12:34;7.80;1.40
18392;DHT22;9322;50.932;5.318;2023-12-14T03:15:00;7.80;1.40
18392;DHT22;9322;50.932;5.318;2023-12-14T03:17:26;7.80;1.40
18392;DHT22;9322;50.932;5.318;2023-12-14T03:19:52;7.90;1.40
18392;DHT22;9322;50.932;5.318;2023-12-14T03:22:17;7.70;1.40
18392;DHT22;9322;50.932;5.318;2023-12-14T03:24:43;7.80;1.40
18392;DHT22;9322;50.932;5.318;2023-12-14T03:27:09;7.70;1.40
18392;DHT22;9322;50.932;5.318;2023-12-14T03:29:35;7.70;1.40
18392;DHT22;9322;50.932;5.318;2023-12-14T03:32:01;7.70;1.40
18392;DHT22;9322;50.932;5.318;2023-12-14T03:34:27;7.60;1.40
18392;DHT22;9322;50.932;5.318;2023-12-14T03:36:53;7.80;1.40
18392;DHT22;9322;50.932;5.318;2023-12-14T03:39:18;7.80;1.40
18392;DHT22;9322;50.932;5.318;2023-12-14T03:41:44;7.70;1.40
18392;DHT22;9322;50.932;5.318;2023-12-14T03:44:10;7.50;1.40
18392;DHT22;9322;50.932;5.318;2023-12-14T03:46:36;7.60;1.40
18392;DHT22;9322;50.932;5.318;2023-12-14T03:49:02;7.50;1.40
18392;DHT22;9322;50.932;5.318;2023-12-14T03:51:35;7.60;1.40
18392;DHT22;9322;50.932;5.318;2023-12-14T03:54:00;7.70;1.40
18392;DHT22;9322;50.932;5.318;2023-12-14T03:56:26;7.60;1.40
18392;DHT22;9322;50.932;5.318;2023-12-14T03:58:52;7.60;1.40
18392;DHT22;9322;50.932;5.318;2023-12-14T04:01:18;7.40;1.40
18392;DHT22;9322;50.932;5.318;2023-12-14T04:03:45;7.40;1.40
18392;DHT22;9322;50.932;5.318;2023-12-14T04:06:11;7.40;1.40
18392;DHT22;9322;50.932;5.318;2023-12-14T04:08:37;7.30;1.40
18392;DHT22;9322;50.932;5.318;2023-12-14T04:11:03;7.30;1.40
18392;DHT22;9322;50.932;5.318;2023-12-14T04:13:29;7.30;1.40
18392;DHT22;9322;50.932;5.318;2023-12-14T04:15:55;7.30;1.40
18392;DHT22;9322;50.932;5.318;2023-12-14T04:18:20;7.30;1.40
18392;DHT22;9322;50.932;5.318;2023-12-14T04:20:46;7.20;1.40
18392;DHT22;9322;50.932;5.318;2023-12-14T04:23:12;7.10;1.40
18392;DHT22;9322;50.932;5.318;2023-12-14T04:25:38;7.10;1.40
18392;DHT22;9322;50.932;5.318;2023-12-14T04:28:03;7.20;1.40
18392;DHT22;9322;50.932;5.318;2023-12-14T04:30:29;7.20;1.40
18392;DHT22;9322;50.932;5.318;2023-12-14T04:32:55;7.10;1.40
18392;DHT22;9322;50.932;5.318;2023-12-14T04:35:21;7.20;1.40
18392;DHT22;9322;50.932;5.318;2023-12-14T04:37:48;7.20;1.40
18392;DHT22;9322;50.932;5.318;2023-12-14T04:40:14;7.20;1.40
18392;DHT22;9322;50.932;5.318;2023-12-14T04:42:40;7.20;1.40
18392;DHT22;9322;50.932;5.318;2023-12-14T04:45:06;7.30;1.40
18392;DHT22;9322;50.932;5.318;2023-12-14T04:47:32;7.20;1.40
18392;DHT22;9322;50.932;5.318;2023-12-14T04:49:58;7.20;1.40
18392;DHT22;9322;50.932;5.318;2023-12-14T04:52:23;7.10;1.40
18392;DHT22;9322;50.932;5.318;2023-12-14T04:54:49;7.20;1.40
18392;DHT22;9322;50.932;5.318;2023-12-14T04:57:15;7.10;1.40
18392;DHT22;9322;50.932;5.318;2023-12-14T04:59:41;7.10;1.40
18392;DHT22;9322;50.932;5.318;2023-12-14T05:02:07;7.10;1.40
18392;DHT22;9322;50.932;5.318;2023-12-14T05:04:33;7.10;1.40
18392;DHT22;9322;50.932;5.318;2023-12-14T05:06:59;7.00;1.40
18392;DHT22;9322;50.932;5.318;2023-12-14T05:09:25;7.00;1.40
18392;DHT22;9322;50.932;5.318;2023-12-14T05:11:50;6.90;1.40
18392;DHT22;9322;50.932;5.318;2023-12-14T05:14:17;6.90;1.40
18392;DHT22;9322;50.932;5.318;2023-12-14T05:16:43;6.90;1.40
18392;DHT22;9322;50.932;5.318;2023-12-14T05:19:09;6.90;1.40
18392;DHT22;9322;50.932;5.318;2023-12-14T05:21:35;6.80;1.40
18392;DHT22;9322;50.932;5.318;2023-12-14T05:24:01;6.80;1.40
18392;DHT22;9322;50.932;5.318;2023-12-14T05:26:27;6.90;1.40
18392;DHT22;9322;50.932;5.318;2023-12-14T05:28:52;6.90;1.40
18392;DHT22;9322;50.932;5.318;2023-12-14T05:31:19;7.00;1.40
18392;DHT22;9322;50.932;5.318;2023-12-14T05:33:45;6.90;1.40
18392;DHT22;9322;50.932;5.318;2023-12-14T05:36:10;6.90;1.40
18392;DHT22;9322;50.932;5.318;2023-12-14T05:38:40;6.90;1.40
18392;DHT22;9322;50.932;5.318;2023-12-14T05:41:06;6.90;1.40
18392;DHT22;9322;50.932;5.318;2023-12-14T05:43:32;6.90;1.40
18392;DHT22;9322;50.932;5.318;2023-12-14T05:45:58;6.90;1.40
18392;DHT22;9322;50.932;5.318;2023-12-14T05:48:24;7.00;1.40
18392;DHT22;9322;50.932;5.318;2023-12-14T05:50:51;7.00;1.40
18392;DHT22;9322;50.932;5.318;2023-12-14T05:53:17;7.00;1.40
18392;DHT22;9322;50.932;5.318;2023-12-14T05:55:43;6.90;1.40
18392;DHT22;9322;50.932;5.318;2023-12-14T05:58:08;6.90;1.40
18392;DHT22;9322;50.932;5.318;2023-12-14T06:00:35;6.90;1.40
18392;DHT22;9322;50.932;5.318;2023-12-14T06:03:01;6.80;1.40
18392;DHT22;9322;50.932;5.318;2023-12-14T06:05:27;6.90;1.40
18392;DHT22;9322;50.932;5.318;2023-12-14T06:07:53;6.90;1.40
18392;DHT22;9322;50.932;5.318;2023-12-14T06:10:19;6.90;1.40
18392;DHT22;9322;50.932;5.318;2023-12-14T06:12:45;7.00;1.40
18392;DHT22;9322;50.932;5.318;2023-12-14T06:15:10;7.00;1.40
18392;DHT22;9322;50.932;5.318;2023-12-14T06:17:37;7.00;1.40
18392;DHT22;9322;50.932;5.318;2023-12-14T06:20:05;6.90;1.40
18392;DHT22;9322;50.932;5.318;2023-12-14T06:22:37;6.80;1.40
18392;DHT22;9322;50.932;5.318;2023-12-14T06:25:03;6.80;1.40
18392;DHT22;9322;50.932;5.318;2023-12-14T06:27:29;6.90;1.40
18392;DHT22;9322;50.932;5.318;2023-12-14T06:29:55;6.70;1.40
18392;DHT22;9322;50.932;5.318;2023-12-14T06:32:21;6.80;1.40
18392;DHT22;9322;50.932;5.318;2023-12-14T06:34:47;6.70;1.40
18392;DHT22;9322;50.932;5.318;2023-12-14T06:37:13;6.70;1.40
18392;DHT22;9322;50.932;5.318;2023-12-14T06:39:41;6.70;1.40
18392;DHT22;9322;50.932;5.318;2023-12-14T06:42:07;6.60;1.40
18392;DHT22;9322;50.932;5.318;2023-12-14T06:44:33;6.70;1.40
18392;DHT22;9322;50.932;5.318;2023-12-14T06:46:58;6.70;1.40
18392;DHT22;9322;50.932;5.318;2023-12-14T06:49:25;6.70;1.40
18392;DHT22;9322;50.932;5.318;2023-12-14T06:51:51;6.80;1.40
18392;DHT22;9322;50.932;5.318;2023-12-14T06:54:17;6.90;1.40
18392;DHT22;9322;50.932;5.318;2023-12-14T06:56:42;6.70;1.40
18392;DHT22;9322;50.932;5.318;2023-12-14T06:59:08;6.60;1.40
18392;DHT22;9322;50.932;5.318;2023-12-14T07:01:34;6.60;1.40
18392;DHT22;9322;50.932;5.318;2023-12-14T07:04:00;6.70;1.40
18392;DHT22;9322;50.932;5.318;2023-12-14T07:06:26;6.70;1.40
18392;DHT22;9322;50.932;5.318;2023-12-14T07:08:51;6.70;1.40
18392;DHT22;9322;50.932;5.318;2023-12-14T07:11:17;6.70;1.40
18392;DHT22;9322;50.932;5.318;2023-12-14T07:13:43;6.70;1.40
18392;DHT22;9322;50.932;5.318;2023-12-14T07:16:10;6.70;1.40
18392;DHT22;9322;50.932;5.318;2023-12-14T07:18:38;6.80;1.40
18392;DHT22;9322;50.932;5.318;2023-12-14T07:21:04;6.80;1.40
18392;DHT22;9322;50.932;5.318;2023-12-14T07:23:30;6.80;1.40
18392;DHT22;9322;50.932;5.318;2023-12-14T07:25:56;6.80;1.40
18392;DHT22;9322;50.932;5.318;2023-12-14T07:28:22;6.80;1.40
18392;DHT22;9322;50.932;5.318;2023-12-14T07:30:48;6.90;1.40
18392;DHT22;9322;50.932;5.318;2023-12-14T07:33:16;6.80;1.40
18392;DHT22;9322;50.932;5.318;2023-12-14T07:35:42;6.90;1.40
18392;DHT22;9322;50.932;5.318;2023-12-14T07:38:09;6.90;1.40
18392;DHT22;9322;50.932;5.318;2023-12-14T07:40:35;6.80;1.40
18392;DHT22;9322;50.932;5.318;2023-12-14T07:43:00;6.90;1.40
18392;DHT22;9322;50.932;5.318;2023-12-14T07:45:26;6.90;1.40
18392;DHT22;9322;50.932;5.318;2023-12-14T07:47:52;6.90;1.40
18392;DHT22;9322;50.932;5.318;2023-12-14T07:50:19;7.10;1.40
18392;DHT22;9322;50.932;5.318;2023-12-14T07:52:45;7.00;1.40
18392;DHT22;9322;50.932;5.318;2023-12-14T07:55:10;7.00;1.40
18392;DHT22;9322;50.932;5.318;2023-12-14T07:57:39;6.90;1.40
18392;DHT22;9322;50.932;5.318;2023-12-14T08:00:05;7.00;1.40
18392;DHT22;9322;50.932;5.318;2023-12-14T08:02:31;7.00;1.40
18392;DHT22;9322;50.932;5.318;2023-12-14T08:04:57;7.00;1.40
18392;DHT22;9322;50.932;5.318;2023-12-14T08:07:23;6.80;1.40
18392;DHT22;9322;50.932;5.318;2023-12-14T08:09:48;6.70;1.40
18392;DHT22;9322;50.932;5.318;2023-12-14T08:12:14;6.70;1.40
18392;DHT22;9322;50.932;5.318;2023-12-14T08:14:40;6.60;1.40
18392;DHT22;9322;50.932;5.318;2023-12-14T08:17:09;6.50;1.40
18392;DHT22;9322;50.932;5.318;2023-12-14T08:19:36;6.60;1.40
18392;DHT22;9322;50.932;5.318;2023-12-14T08:22:01;6.70;1.40
18392;DHT22;9322;50.932;5.318;2023-12-14T08:24:27;6.70;1.40
18392;DHT22;9322;50.932;5.318;2023-12-14T08:26:54;6.70;1.40
18392;DHT22;9322;50.932;5.318;2023-12-14T08:29:19;6.70;1.40
18392;DHT22;9322;50.932;5.318;2023-12-14T08:31:45;6.70;1.40
18392;DHT22;9322;50.932;5.318;2023-12-14T08:34:11;6.70;1.40
18392;DHT22;9322;50.932;5.318;2023-12-14T08:36:37;6.80;1.40
18392;DHT22;9322;50.932;5.318;2023-12-14T08:39:03;6.80;1.40
18392;DHT22;9322;50.932;5.318;2023-12-14T08:41:28;6.90;1.40
18392;DHT22;9322;50.932;5.318;2023-12-14T08:43:54;6.90;1.40
18392;DHT22;9322;50.932;5.318;2023-12-14T08:46:21;7.00;1.40
18392;DHT22;9322;50.932;5.318;2023-12-14T08:48:48;6.90;1.40
18392;DHT22;9322;50.932;5.318;2023-12-14T08:51:14;7.00;1.40
18392;DHT22;9322;50.932;5.318;2023-12-14T08:53:40;7.00;1.40
18392;DHT22;9322;50.932;5.318;2023-12-14T08:56:06;7.00;1.40
18392;DHT22;9322;50.932;5.318;2023-12-14T08:58:31;7.10;1.40
18392;DHT22;9322;50.932;5.318;2023-12-14T09:00:57;7.10;1.40
18392;DHT22;9322;50.932;5.318;2023-12-14T09:03:23;7.30;1.40
18392;DHT22;9322;50.932;5.318;2023-12-14T09:05:49;7.30;1.40
18392;DHT22;9322;50.932;5.318;2023-12-14T09:08:14;7.30;1.40
18392;DHT22;9322;50.932;5.318;2023-12-14T09:10:40;7.30;1.40
18392;DHT22;9322;50.932;5.318;2023-12-14T09:13:06;7.30;1.40
18392;DHT22;9322;50.932;5.318;2023-12-14T09:15:32;7.30;1.40
18392;DHT22;9322;50.932;5.318;2023-12-14T09:17:58;7.30;1.40
18392;DHT22;9322;50.932;5.318;2023-12-14T09:20:23;7.30;1.40
18392;DHT22;9322;50.932;5.318;2023-12-14T09:22:49;7.40;1.40
18392;DHT22;9322;50.932;5.318;2023-12-14T09:25:16;7.50;1.40
18392;DHT22;9322;50.932;5.318;2023-12-14T09:27:41;7.60;1.40
18392;DHT22;9322;50.932;5.318;2023-12-14T09:30:08;7.60;1.40
18392;DHT22;9322;50.932;5.318;2023-12-14T09:32:34;7.70;1.40
18392;DHT22;9322;50.932;5.318;2023-12-14T09:34:59;7.90;1.40
18392;DHT22;9322;50.932;5.318;2023-12-14T09:37:25;8.00;1.40
18392;DHT22;9322;50.932;5.318;2023-12-14T09:39:51;8.20;1.40
18392;DHT22;9322;50.932;5.318;2023-12-14T09:42:18;8.20;1.40
18392;DHT22;9322;50.932;5.318;2023-12-14T09:44:48;8.00;1.40
18392;DHT22;9322;50.932;5.318;2023-12-14T09:47:14;8.00;1.40
18392;DHT22;9322;50.932;5.318;2023-12-14T09:49:41;7.90;1.40
18392;DHT22;9322;50.932;5.318;2023-12-14T09:52:09;7.80;1.40
18392;DHT22;9322;50.932;5.318;2023-12-14T09:54:35;7.80;1.40
18392;DHT22;9322;50.932;5.318;2023-12-14T09:57:00;8.00;1.40
18392;DHT22;9322;50.932;5.318;2023-12-14T09:59:26;7.90;1.40
18392;DHT22;9322;50.932;5.318;2023-12-14T10:01:52;7.90;1.40
18392;DHT22;9322;50.932;5.318;2023-12-14T10:04:19;7.90;1.40
18392;DHT22;9322;50.932;5.318;2023-12-14T10:06:47;7.80;1.40
18392;DHT22;9322;50.932;5.318;2023-12-14T10:09:13;7.70;1.40
18392;DHT22;9322;50.932;5.318;2023-12-14T10:11:42;7.70;1.40
18392;DHT22;9322;50.932;5.318;2023-12-14T10:14:24;7.70;1.40
18392;DHT22;9322;50.932;5.318;2023-12-14T10:16:51;7.50;1.40
18392;DHT22;9322;50.932;5.318;2023-12-14T10:19:18;7.60;1.40
18392;DHT22;9322;50.932;5.318;2023-12-14T10:21:46;7.60;1.40
18392;DHT22;9322;50.932;5.318;2023-12-14T10:24:12;7.60;1.40
18392;DHT22;9322;50.932;5.318;2023-12-14T10:26:38;7.60;1.40
18392;DHT22;9322;50.932;5.318;2023-12-14T10:29:04;7.70;1.40
18392;DHT22;9322;50.932;5.318;2023-12-14T10:31:33;7.70;1.40
18392;DHT22;9322;50.932;5.318;2023-12-14T10:34:06;7.40;1.40
18392;DHT22;9322;50.932;5.318;2023-12-14T10:36:32;7.40;1.40
18392;DHT22;9322;50.932;5.318;2023-12-14T10:38:59;7.50;1.40
18392;DHT22;9322;50.932;5.318;2023-12-14T10:41:25;7.50;1.40
18392;DHT22;9322;50.932;5.318;2023-12-14T10:43:54;7.60;1.40
18392;DHT22;9322;50.932;5.318;2023-12-14T10:46:20;7.80;1.40
18392;DHT22;9322;50.932;5.318;2023-12-14T10:48:50;8.00;1.40
18392;DHT22;9322;50.932;5.318;2023-12-14T10:51:20;8.50;1.40
18392;DHT22;9322;50.932;5.318;2023-12-14T10:53:47;9.00;1.40
18392;DHT22;9322;50.932;5.318;2023-12-14T10:56:15;9.30;1.40
18392;DHT22;9322;50.932;5.318;2023-12-14T10:58:57;9.40;1.40
18392;DHT22;9322;50.932;5.318;2023-12-14T11:01:24;9.20;1.40
18392;DHT22;9322;50.932;5.318;2023-12-14T11:03:54;9.00;1.40
18392;DHT22;9322;50.932;5.318;2023-12-14T11:06:32;9.10;1.40
18392;DHT22;9322;50.932;5.318;2023-12-14T11:09:08;9.70;1.40
18392;DHT22;9322;50.932;5.318;2023-12-14T11:11:47;10.20;1.40
18392;DHT22;9322;50.932;5.318;2023-12-14T11:14:23;10.20;1.40
18392;DHT22;9322;50.932;5.318;2023-12-14T11:16:54;9.70;1.40
18392;DHT22;9322;50.932;5.318;2023-12-14T11:24:23;8.20;1.40
18392;DHT22;9322;50.932;5.318;2023-12-14T11:26:54;8.10;1.40
18392;DHT22;9322;50.932;5.318;2023-12-14T11:29:20;8.00;1.40
18392;DHT22;9322;50.932;5.318;2023-12-14T11:31:47;7.90;1.40
18392;DHT22;9322;50.932;5.318;2023-12-14T11:34:16;8.00;1.40
18392;DHT22;9322;50.932;5.318;2023-12-14T11:36:42;8.00;1.40
18392;DHT22;9322;50.932;5.318;2023-12-14T11:39:10;8.10;1.40
18392;DHT22;9322;50.932;5.318;2023-12-14T11:41:36;8.20;1.40
18392;DHT22;9322;50.932;5.318;2023-12-14T11:44:04;8.30;1.40
18392;DHT22;9322;50.932;5.318;2023-12-14T11:46:30;8.20;1.40
18392;DHT22;9322;50.932;5.318;2023-12-14T11:48:57;8.30;1.40
18392;DHT22;9322;50.932;5.318;2023-12-14T11:51:23;8.30;1.40
18392;DHT22;9322;50.932;5.318;2023-12-14T11:53:51;8.20;1.40
18392;DHT22;9322;50.932;5.318;2023-12-14T11:56:18;8.20;1.40
18392;DHT22;9322;50.932;5.318;2023-12-14T11:58:44;8.20;1.40
18392;DHT22;9322;50.932;5.318;2023-12-14T12:01:17;8.40;1.40
18392;DHT22;9322;50.932;5.318;2023-12-14T12:03:44;8.20;1.40
18392;DHT22;9322;50.932;5.318;2023-12-14T12:06:24;8.10;1.40
18392;DHT22;9322;50.932;5.318;2023-12-14T12:08:51;8.00;1.40
18392;DHT22;9322;50.932;5.318;2023-12-14T12:11:22;8.00;1.40
18392;DHT22;9322;50.932;5.318;2023-12-14T12:13:52;7.90;1.40
18392;DHT22;9322;50.932;5.318;2023-12-14T12:16:18;8.00;1.40
18392;DHT22;9322;50.932;5.318;2023-12-14T12:18:44;7.90;1.40
18392;DHT22;9322;50.932;5.318;2023-12-14T12:21:11;8.00;1.40
18392;DHT22;9322;50.932;5.318;2023-12-14T12:23:38;8.20;1.40
18392;DHT22;9322;50.932;5.318;2023-12-14T12:26:04;8.40;1.40
18392;DHT22;9322;50.932;5.318;2023-12-14T12:28:30;8.40;1.40
18392;DHT22;9322;50.932;5.318;2023-12-14T12:30:57;8.60;1.40
18392;DHT22;9322;50.932;5.318;2023-12-14T12:33:23;8.70;1.40
18392;DHT22;9322;50.932;5.318;2023-12-14T12:35:49;8.80;1.40
18392;DHT22;9322;50.932;5.318;2023-12-14T12:38:15;8.80;1.40
18392;DHT22;9322;50.932;5.318;2023-12-14T12:40:42;8.90;1.40
18392;DHT22;9322;50.932;5.318;2023-12-14T12:43:07;8.90;1.40
18392;DHT22;9322;50.932;5.318;2023-12-14T12:45:33;8.70;1.40
18392;DHT22;9322;50.932;5.318;2023-12-14T12:48:01;8.60;1.40
18392;DHT22;9322;50.932;5.318;2023-12-14T12:50:29;8.50;1.40
18392;DHT22;9322;50.932;5.318;2023-12-14T12:52:55;8.50;1.40
18392;DHT22;9322;50.932;5.318;2023-12-14T12:55:20;8.40;1.40
18392;DHT22;9322;50.932;5.318;2023-12-14T12:57:48;8.30;1.40
18392;DHT22;9322;50.932;5.318;2023-12-14T13:00:14;8.20;1.40
18392;DHT22;9322;50.932;5.318;2023-12-14T13:02:41;8.10;1.40
18392;DHT22;9322;50.932;5.318;2023-12-14T13:05:08;8.10;1.40
18392;DHT22;9322;50.932;5.318;2023-12-14T13:07:35;8.20;1.40
18392;DHT22;9322;50.932;5.318;2023-12-14T13:10:02;8.30;1.40
18392;DHT22;9322;50.932;5.318;2023-12-14T13:12:29;8.50;1.40
18392;DHT22;9322;50.932;5.318;2023-12-14T13:14:55;8.50;1.40
18392;DHT22;9322;50.932;5.318;2023-12-14T13:17:21;8.50;1.40
18392;DHT22;9322;50.932;5.318;2023-12-14T13:19:47;8.60;1.40
18392;DHT22;9322;50.932;5.318;2023-12-14T13:22:12;8.70;1.40
18392;DHT22;9322;50.932;5.318;2023-12-14T13:24:38;8.60;1.40
18392;DHT22;9322;50.932;5.318;2023-12-14T13:27:04;8.60;1.40
18392;DHT22;9322;50.932;5.318;2023-12-14T13:29:31;8.50;1.40
18392;DHT22;9322;50.932;5.318;2023-12-14T13:31:58;8.60;1.40
18392;DHT22;9322;50.932;5.318;2023-12-14T13:34:26;8.50;1.40
18392;DHT22;9322;50.932;5.318;2023-12-14T13:36:51;8.80;1.40
18392;DHT22;9322;50.932;5.318;2023-12-14T13:39:17;8.70;1.40
18392;DHT22;9322;50.932;5.318;2023-12-14T13:41:43;8.50;1.40
18392;DHT22;9322;50.932;5.318;2023-12-14T13:44:08;8.50;1.40
18392;DHT22;9322;50.932;5.318;2023-12-14T13:46:36;8.60;1.40
18392;DHT22;9322;50.932;5.318;2023-12-14T13:49:01;8.60;1.40
18392;DHT22;9322;50.932;5.318;2023-12-14T13:51:28;8.60;1.40
18392;DHT22;9322;50.932;5.318;2023-12-14T13:53:54;8.60;1.40
18392;DHT22;9322;50.932;5.318;2023-12-14T13:56:21;8.60;1.40
18392;DHT22;9322;50.932;5.318;2023-12-14T13:58:46;8.60;1.40
18392;DHT22;9322;50.932;5.318;2023-12-14T14:01:13;8.60;1.40
18392;DHT22;9322;50.932;5.318;2023-12-14T14:03:41;8.50;1.40
18392;DHT22;9322;50.932;5.318;2023-12-14T14:06:07;8.60;1.40
18392;DHT22;9322;50.932;5.318;2023-12-14T14:08:33;8.60;1.40
18392;DHT22;9322;50.932;5.318;2023-12-14T14:10:59;8.50;1.40
18392;DHT22;9322;50.932;5.318;2023-12-14T14:13:26;8.60;1.40
18392;DHT22;9322;50.932;5.318;2023-12-14T14:15:51;8.60;1.40
18392;DHT22;9322;50.932;5.318;2023-12-14T14:18:17;8.50;1.40
18392;DHT22;9322;50.932;5.318;2023-12-14T14:20:43;8.40;1.40
18392;DHT22;9322;50.932;5.318;2023-12-14T14:23:09;8.40;1.40
18392;DHT22;9322;50.932;5.318;2023-12-14T14:25:35;8.40;1.40
18392;DHT22;9322;50.932;5.318;2023-12-14T14:28:01;8.40;1.40
18392;DHT22;9322;50.932;5.318;2023-12-14T14:30:26;8.30;1.40
18392;DHT22;9322;50.932;5.318;2023-12-14T14:32:52;8.40;1.40
18392;DHT22;9322;50.932;5.318;2023-12-14T14:35:18;8.40;1.40
18392;DHT22;9322;50.932;5.318;2023-12-14T14:37:44;8.30;1.40
18392;DHT22;9322;50.932;5.318;2023-12-14T14:40:13;8.20;1.40
18392;DHT22;9322;50.932;5.318;2023-12-14T14:42:40;8.20;1.40
18392;DHT22;9322;50.932;5.318;2023-12-14T14:45:10;8.20;1.40
18392;DHT22;9322;50.932;5.318;2023-12-14T14:47:37;8.20;1.40
18392;DHT22;9322;50.932;5.318;2023-12-14T14:50:06;8.20;1.40
18392;DHT22;9322;50.932;5.318;2023-12-14T14:52:33;8.20;1.40
18392;DHT22;9322;50.932;5.318;2023-12-14T14:54:59;8.30;1.40
18392;DHT22;9322;50.932;5.318;2023-12-14T14:57:25;8.30;1.40
18392;DHT22;9322;50.932;5.318;2023-12-14T14:59:51;8.30;1.40
18392;DHT22;9322;50.932;5.318;2023-12-14T15:02:17;8.20;1.40
18392;DHT22;9322;50.932;5.318;2023-12-14T15:04:43;8.10;1.40
18392;DHT22;9322;50.932;5.318;2023-12-14T15:07:09;8.20;1.40
18392;DHT22;9322;50.932;5.318;2023-12-14T15:09:35;8.00;1.40
18392;DHT22;9322;50.932;5.318;2023-12-14T15:12:01;8.00;1.40
18392;DHT22;9322;50.932;5.318;2023-12-14T15:14:27;7.90;1.40
18392;DHT22;9322;50.932;5.318;2023-12-14T15:16:56;7.90;1.40
18392;DHT22;9322;50.932;5.318;2023-12-14T15:19:22;7.90;1.40
18392;DHT22;9322;50.932;5.318;2023-12-14T15:21:48;7.90;1.40
18392;DHT22;9322;50.932;5.318;2023-12-14T15:24:14;7.90;1.40
18392;DHT22;9322;50.932;5.318;2023-12-14T15:26:42;7.80;1.40
18392;DHT22;9322;50.932;5.318;2023-12-14T15:29:07;7.80;1.40
18392;DHT22;9322;50.932;5.318;2023-12-14T15:31:33;7.90;1.40
18392;DHT22;9322;50.932;5.318;2023-12-14T15:33:59;7.90;1.40
18392;DHT22;9322;50.932;5.318;2023-12-14T15:36:27;7.80;1.40
18392;DHT22;9322;50.932;5.318;2023-12-14T15:38:53;7.80;1.40
18392;DHT22;9322;50.932;5.318;2023-12-14T15:41:18;7.80;1.40
18392;DHT22;9322;50.932;5.318;2023-12-14T15:43:45;7.80;1.40
18392;DHT22;9322;50.932;5.318;2023-12-14T15:46:10;7.70;1.40
18392;DHT22;9322;50.932;5.318;2023-12-14T15:48:37;7.70;1.40
18392;DHT22;9322;50.932;5.318;2023-12-14T15:51:04;7.70;1.40
18392;DHT22;9322;50.932;5.318;2023-12-14T15:53:30;7.70;1.40
18392;DHT22;9322;50.932;5.318;2023-12-14T15:55:57;7.60;1.40
18392;DHT22;9322;50.932;5.318;2023-12-14T15:58:23;7.50;1.40
18392;DHT22;9322;50.932;5.318;2023-12-14T16:00:48;7.40;1.40
18392;DHT22;9322;50.932;5.318;2023-12-14T16:03:14;7.60;1.40
18392;DHT22;9322;50.932;5.318;2023-12-14T16:05:40;7.60;1.40
18392;DHT22;9322;50.932;5.318;2023-12-14T16:08:06;7.50;1.40
18392;DHT22;9322;50.932;5.318;2023-12-14T16:10:33;7.50;1.40
18392;DHT22;9322;50.932;5.318;2023-12-14T16:12:59;7.40;1.40
18392;DHT22;9322;50.932;5.318;2023-12-14T16:15:25;7.40;1.40